sensor_id;sensor_type;location;lat;lon;timestamp;temperature;humidity
24250;DHT22;12379;49.820;8.648;2022-12-07T00:01:39;3.90;99.90
24250;DHT22;12379;49.820;8.648;2022-12-07T00:04:06;3.80;99.90
24250;DHT22;12379;49.820;8.648;2022-12-07T00:06:33;3.80;99.90
24250;DHT22;12379;49.820;8.648;2022-12-07T00:08:59;3.80;99.90
24250;DHT22;12379;49.820;8.648;2022-12-07T00:11:26;3.80;99.90
24250;DHT22;12379;49.820;8.648;2022-12-07T00:13:53;3.80;99.90
24250;DHT22;12379;49.820;8.648;2022-12-07T00:16:21;3.80;99.90
24250;DHT22;12379;49.820;8.648;2022-12-07T00:18:47;3.80;99.90
24250;DHT22;12379;49.820;8.648;2022-12-07T00:21:33;3.80;99.90
24250;DHT22;12379;49.820;8.648;2022-12-07T00:23:59;3.70;99.90
24250;DHT22;12379;49.820;8.648;2022-12-07T00:26:33;3.80;99.90
24250;DHT22;12379;49.820;8.648;2022-12-07T00:29:22;3.70;99.90
24250;DHT22;12379;49.820;8.648;2022-12-07T00:31:48;3.80;99.90
24250;DHT22;12379;49.820;8.648;2022-12-07T00:34:17;3.80;99.90
24250;DHT22;12379;49.820;8.648;2022-12-07T00:36:43;3.70;99.90
24250;DHT22;12379;49.820;8.648;2022-12-07T00:39:08;3.80;99.90
24250;DHT22;12379;49.820;8.648;2022-12-07T00:41:34;3.80;99.90
24250;DHT22;12379;49.820;8.648;2022-12-07T00:43:59;3.80;99.90
24250;DHT22;12379;49.820;8.648;2022-12-07T00:46:25;3.80;99.90
24250;DHT22;12379;49.820;8.648;2022-12-07T00:48:52;3.80;99.90
24250;DHT22;12379;49.820;8.648;2022-12-07T00:51:19;3.80;99.90
24250;DHT22;12379;49.820;8.648;2022-12-07T00:53:45;3.80;99.90
24250;DHT22;12379;49.820;8.648;2022-12-07T00:56:13;3.80;99.90
24250;DHT22;12379;49.820;8.648;2022-12-07T00:58:39;3.80;99.90
24250;DHT22;12379;49.820;8.648;2022-12-07T01:01:06;3.80;99.90
24250;DHT22;12379;49.820;8.648;2022-12-07T01:03:32;3.80;99.90
24250;DHT22;12379;49.820;8.648;2022-12-07T01:05:58;3.80;99.90
24250;DHT22;12379;49.820;8.648;2022-12-07T01:08:24;3.70;99.90
24250;DHT22;12379;49.820;8.648;2022-12-07T01:11:02;3.70;99.90
24250;DHT22;12379;49.820;8.648;2022-12-07T01:13:27;3.70;99.90
24250;DHT22;12379;49.820;8.648;2022-12-07T01:16:00;3.70;99.90
24250;DHT22;12379;49.820;8.648;2022-12-07T01:18:27;3.70;99.90
24250;DHT22;12379;49.820;8.648;2022-12-07T01:21:04;3.80;99.90
24250;DHT22;12379;49.820;8.648;2022-12-07T01:23:31;3.80;99.90
24250;DHT22;12379;49.820;8.648;2022-12-07T01:26:02;3.80;99.90
24250;DHT22;12379;49.820;8.648;2022-12-07T01:28:28;3.80;99.90
24250;DHT22;12379;49.820;8.648;2022-12-07T01:31:07;3.70;99.90
24250;DHT22;12379;49.820;8.648;2022-12-07T01:33:35;3.70;99.90
24250;DHT22;12379;49.820;8.648;2022-12-07T01:36:07;3.70;99.90
24250;DHT22;12379;49.820;8.648;2022-12-07T01:38:33;3.80;99.90
24250;DHT22;12379;49.820;8.648;2022-12-07T01:41:01;3.90;99.90
24250;DHT22;12379;49.820;8.648;2022-12-07T01:43:28;3.90;99.90
24250;DHT22;12379;49.820;8.648;2022-12-07T01:45:55;3.80;99.90
24250;DHT22;12379;49.820;8.648;2022-12-07T01:48:27;3.80;99.90
24250;DHT22;12379;49.820;8.648;2022-12-07T01:50:55;3.80;99.90
24250;DHT22;12379;49.820;8.648;2022-12-07T01:53:24;3.70;99.90
24250;DHT22;12379;49.820;8.648;2022-12-07T01:55:52;3.70;99.90
24250;DHT22;12379;49.820;8.648;2022-12-07T01:58:18;3.70;99.90
24250;DHT22;12379;49.820;8.648;2022-12-07T02:00:45;3.60;99.90
24250;DHT22;12379;49.820;8.648;2022-12-07T02:03:24;3.60;99.90
24250;DHT22;12379;49.820;8.648;2022-12-07T02:05:51;3.60;99.90
24250;DHT22;12379;49.820;8.648;2022-12-07T02:08:18;3.60;99.90
24250;DHT22;12379;49.820;8.648;2022-12-07T02:10:45;3.60;99.90
24250;DHT22;12379;49.820;8.648;2022-12-07T02:13:16;3.60;99.90
24250;DHT22;12379;49.820;8.648;2022-12-07T02:21:09;3.60;99.90
24250;DHT22;12379;49.820;8.648;2022-12-07T02:24:19;3.70;99.90
24250;DHT22;12379;49.820;8.648;2022-12-07T02:27:02;3.70;99.90
24250;DHT22;12379;49.820;8.648;2022-12-07T02:34:55;4.20;99.90
24250;DHT22;12379;49.820;8.648;2022-12-07T02:37:51;4.10;99.90
24250;DHT22;12379;49.820;8.648;2022-12-07T02:43:03;3.80;99.90
24250;DHT22;12379;49.820;8.648;2022-12-07T02:45:31;3.80;99.90
24250;DHT22;12379;49.820;8.648;2022-12-07T02:47:59;3.70;99.90
24250;DHT22;12379;49.820;8.648;2022-12-07T02:50:26;3.70;99.90
24250;DHT22;12379;49.820;8.648;2022-12-07T02:52:53;3.80;99.90
24250;DHT22;12379;49.820;8.648;2022-12-07T02:55:22;3.80;99.90
24250;DHT22;12379;49.820;8.648;2022-12-07T03:00:22;3.90;99.90
24250;DHT22;12379;49.820;8.648;2022-12-07T03:03:04;4.00;99.90
24250;DHT22;12379;49.820;8.648;2022-12-07T03:18:57;3.80;99.90
24250;DHT22;12379;49.820;8.648;2022-12-07T03:21:32;3.80;99.90
24250;DHT22;12379;49.820;8.648;2022-12-07T03:24:05;3.80;99.90
24250;DHT22;12379;49.820;8.648;2022-12-07T03:26:35;3.80;99.90
24250;DHT22;12379;49.820;8.648;2022-12-07T03:29:07;3.80;99.90
24250;DHT22;12379;49.820;8.648;2022-12-07T03:31:41;3.80;99.90
24250;DHT22;12379;49.820;8.648;2022-12-07T03:34:14;3.70;99.90
24250;DHT22;12379;49.820;8.648;2022-12-07T03:36:48;3.90;99.90
24250;DHT22;12379;49.820;8.648;2022-12-07T03:39:33;3.80;99.90
24250;DHT22;12379;49.820;8.648;2022-12-07T03:42:00;3.80;99.90
24250;DHT22;12379;49.820;8.648;2022-12-07T03:44:28;3.70;99.90
24250;DHT22;12379;49.820;8.648;2022-12-07T03:49:33;3.70;99.90
24250;DHT22;12379;49.820;8.648;2022-12-07T03:52:41;3.70;99.90
24250;DHT22;12379;49.820;8.648;2022-12-07T03:55:04;3.70;99.90
24250;DHT22;12379;49.820;8.648;2022-12-07T03:57:33;3.70;99.90
24250;DHT22;12379;49.820;8.648;2022-12-07T03:59:59;3.80;99.90
24250;DHT22;12379;49.820;8.648;2022-12-07T04:02:27;3.90;99.90
24250;DHT22;12379;49.820;8.648;2022-12-07T04:04:54;3.90;99.90
24250;DHT22;12379;49.820;8.648;2022-12-07T04:07:20;3.80;99.90
24250;DHT22;12379;49.820;8.648;2022-12-07T04:09:46;3.70;99.90
24250;DHT22;12379;49.820;8.648;2022-12-07T04:12:11;3.70;99.90
24250;DHT22;12379;49.820;8.648;2022-12-07T04:14:37;3.70;99.90
24250;DHT22;12379;49.820;8.648;2022-12-07T04:17:02;3.80;99.90
24250;DHT22;12379;49.820;8.648;2022-12-07T04:19:31;3.80;99.90
24250;DHT22;12379;49.820;8.648;2022-12-07T04:21:58;3.80;99.90
24250;DHT22;12379;49.820;8.648;2022-12-07T04:24:24;3.80;99.90
24250;DHT22;12379;49.820;8.648;2022-12-07T04:26:50;3.90;99.90
24250;DHT22;12379;49.820;8.648;2022-12-07T04:29:17;3.90;99.90
24250;DHT22;12379;49.820;8.648;2022-12-07T04:31:43;3.90;99.90
24250;DHT22;12379;49.820;8.648;2022-12-07T04:34:10;4.00;99.90
24250;DHT22;12379;49.820;8.648;2022-12-07T04:36:36;3.80;99.90
24250;DHT22;12379;49.820;8.648;2022-12-07T04:39:02;3.80;99.90
24250;DHT22;12379;49.820;8.648;2022-12-07T04:41:28;3.80;99.90
24250;DHT22;12379;49.820;8.648;2022-12-07T04:43:59;3.80;99.90
24250;DHT22;12379;49.820;8.648;2022-12-07T04:46:26;3.80;99.90
24250;DHT22;12379;49.820;8.648;2022-12-07T04:48:53;3.70;99.90
24250;DHT22;12379;49.820;8.648;2022-12-07T04:51:25;3.70;99.90
24250;DHT22;12379;49.820;8.648;2022-12-07T04:53:51;3.70;99.90
24250;DHT22;12379;49.820;8.648;2022-12-07T04:56:17;3.70;99.90
24250;DHT22;12379;49.820;8.648;2022-12-07T04:58:45;3.70;99.90
24250;DHT22;12379;49.820;8.648;2022-12-07T05:01:11;3.70;99.90
24250;DHT22;12379;49.820;8.648;2022-12-07T05:03:37;3.70;99.90
24250;DHT22;12379;49.820;8.648;2022-12-07T05:06:04;3.70;99.90
24250;DHT22;12379;49.820;8.648;2022-12-07T05:08:29;3.70;99.90
24250;DHT22;12379;49.820;8.648;2022-12-07T05:10:55;3.70;99.90
24250;DHT22;12379;49.820;8.648;2022-12-07T05:13:21;3.70;99.90
24250;DHT22;12379;49.820;8.648;2022-12-07T05:15:47;3.70;99.90
24250;DHT22;12379;49.820;8.648;2022-12-07T05:18:14;3.70;99.90
24250;DHT22;12379;49.820;8.648;2022-12-07T05:20:40;3.70;99.90
24250;DHT22;12379;49.820;8.648;2022-12-07T05:23:06;3.80;99.90
24250;DHT22;12379;49.820;8.648;2022-12-07T05:25:31;3.80;99.90
24250;DHT22;12379;49.820;8.648;2022-12-07T05:27:57;3.80;99.90
24250;DHT22;12379;49.820;8.648;2022-12-07T05:30:24;3.80;99.90
24250;DHT22;12379;49.820;8.648;2022-12-07T05:32:49;3.90;99.90
24250;DHT22;12379;49.820;8.648;2022-12-07T05:35:15;3.90;99.90
24250;DHT22;12379;49.820;8.648;2022-12-07T05:37:41;3.90;99.90
24250;DHT22;12379;49.820;8.648;2022-12-07T05:40:07;3.80;99.90
24250;DHT22;12379;49.820;8.648;2022-12-07T05:42:33;3.80;99.90
24250;DHT22;12379;49.820;8.648;2022-12-07T05:44:58;3.70;99.90
24250;DHT22;12379;49.820;8.648;2022-12-07T05:47:24;3.70;99.90
24250;DHT22;12379;49.820;8.648;2022-12-07T05:49:49;3.70;99.90
24250;DHT22;12379;49.820;8.648;2022-12-07T05:52:15;3.70;99.90
24250;DHT22;12379;49.820;8.648;2022-12-07T05:54:41;3.60;99.90
24250;DHT22;12379;49.820;8.648;2022-12-07T05:57:06;3.70;99.90
24250;DHT22;12379;49.820;8.648;2022-12-07T05:59:32;3.70;99.90
24250;DHT22;12379;49.820;8.648;2022-12-07T06:02:07;3.70;99.90
24250;DHT22;12379;49.820;8.648;2022-12-07T06:04:36;3.70;99.90
24250;DHT22;12379;49.820;8.648;2022-12-07T06:07:05;3.80;99.90
24250;DHT22;12379;49.820;8.648;2022-12-07T06:09:31;3.90;99.90
24250;DHT22;12379;49.820;8.648;2022-12-07T06:11:58;3.90;99.90
24250;DHT22;12379;49.820;8.648;2022-12-07T06:14:42;4.00;99.90
24250;DHT22;12379;49.820;8.648;2022-12-07T06:17:09;3.90;99.90
24250;DHT22;12379;49.820;8.648;2022-12-07T06:19:34;3.80;99.90
24250;DHT22;12379;49.820;8.648;2022-12-07T06:22:00;3.80;99.90
24250;DHT22;12379;49.820;8.648;2022-12-07T06:24:26;4.00;99.90
24250;DHT22;12379;49.820;8.648;2022-12-07T06:26:52;4.00;99.90
24250;DHT22;12379;49.820;8.648;2022-12-07T06:29:18;4.00;99.90
24250;DHT22;12379;49.820;8.648;2022-12-07T06:31:44;3.90;99.90
24250;DHT22;12379;49.820;8.648;2022-12-07T06:34:12;3.90;99.90
24250;DHT22;12379;49.820;8.648;2022-12-07T06:36:38;3.90;99.90
24250;DHT22;12379;49.820;8.648;2022-12-07T06:39:04;3.90;99.90
24250;DHT22;12379;49.820;8.648;2022-12-07T06:41:50;4.00;99.90
24250;DHT22;12379;49.820;8.648;2022-12-07T06:44:17;4.00;99.90
24250;DHT22;12379;49.820;8.648;2022-12-07T06:46:43;4.00;99.90
24250;DHT22;12379;49.820;8.648;2022-12-07T06:49:09;4.00;99.90
24250;DHT22;12379;49.820;8.648;2022-12-07T06:51:34;3.90;99.90
24250;DHT22;12379;49.820;8.648;2022-12-07T06:54:02;4.00;99.90
24250;DHT22;12379;49.820;8.648;2022-12-07T06:56:29;4.00;99.90
24250;DHT22;12379;49.820;8.648;2022-12-07T06:58:55;4.00;99.90
24250;DHT22;12379;49.820;8.648;2022-12-07T07:01:20;4.10;99.90
24250;DHT22;12379;49.820;8.648;2022-12-07T07:03:46;4.10;99.90
24250;DHT22;12379;49.820;8.648;2022-12-07T07:06:12;4.00;99.90
24250;DHT22;12379;49.820;8.648;2022-12-07T07:08:38;4.00;99.90
24250;DHT22;12379;49.820;8.648;2022-12-07T07:11:05;3.90;99.90
24250;DHT22;12379;49.820;8.648;2022-12-07T07:13:30;3.90;99.90
24250;DHT22;12379;49.820;8.648;2022-12-07T07:15:57;4.00;99.90
24250;DHT22;12379;49.820;8.648;2022-12-07T07:18:23;4.00;99.90
24250;DHT22;12379;49.820;8.648;2022-12-07T07:20:50;4.00;99.90
24250;DHT22;12379;49.820;8.648;2022-12-07T07:23:16;4.00;99.90
24250;DHT22;12379;49.820;8.648;2022-12-07T07:25:41;4.00;99.90
24250;DHT22;12379;49.820;8.648;2022-12-07T07:28:07;4.10;99.90
24250;DHT22;12379;49.820;8.648;2022-12-07T07:30:32;4.10;99.90
24250;DHT22;12379;49.820;8.648;2022-12-07T07:32:59;4.20;99.90
24250;DHT22;12379;49.820;8.648;2022-12-07T07:35:27;4.20;99.90
24250;DHT22;12379;49.820;8.648;2022-12-07T07:37:52;4.20;99.90
24250;DHT22;12379;49.820;8.648;2022-12-07T07:40:18;4.70;99.90
24250;DHT22;12379;49.820;8.648;2022-12-07T07:42:46;4.80;99.90
24250;DHT22;12379;49.820;8.648;2022-12-07T07:45:12;4.60;99.90
24250;DHT22;12379;49.820;8.648;2022-12-07T07:47:37;4.50;99.90
24250;DHT22;12379;49.820;8.648;2022-12-07T07:50:03;4.40;99.90
24250;DHT22;12379;49.820;8.648;2022-12-07T07:52:29;4.40;99.90
24250;DHT22;12379;49.820;8.648;2022-12-07T07:54:54;4.30;99.90
24250;DHT22;12379;49.820;8.648;2022-12-07T07:57:20;4.20;99.90
24250;DHT22;12379;49.820;8.648;2022-12-07T07:59:45;4.20;99.90
24250;DHT22;12379;49.820;8.648;2022-12-07T08:02:19;4.20;99.90
24250;DHT22;12379;49.820;8.648;2022-12-07T08:04:46;4.20;99.90
24250;DHT22;12379;49.820;8.648;2022-12-07T08:07:14;4.20;99.90
24250;DHT22;12379;49.820;8.648;2022-12-07T08:09:40;4.30;99.90
24250;DHT22;12379;49.820;8.648;2022-12-07T08:12:06;4.30;99.90
24250;DHT22;12379;49.820;8.648;2022-12-07T08:14:31;4.30;99.90
24250;DHT22;12379;49.820;8.648;2022-12-07T08:16:57;4.30;99.90
24250;DHT22;12379;49.820;8.648;2022-12-07T08:19:23;4.40;99.90
24250;DHT22;12379;49.820;8.648;2022-12-07T08:21:49;4.40;99.90
24250;DHT22;12379;49.820;8.648;2022-12-07T08:24:15;4.40;99.90
24250;DHT22;12379;49.820;8.648;2022-12-07T08:26:41;4.50;99.90
24250;DHT22;12379;49.820;8.648;2022-12-07T08:29:07;4.50;99.90
24250;DHT22;12379;49.820;8.648;2022-12-07T08:31:33;4.50;99.90
24250;DHT22;12379;49.820;8.648;2022-12-07T08:33:58;4.50;99.90
24250;DHT22;12379;49.820;8.648;2022-12-07T08:36:24;4.70;99.90
24250;DHT22;12379;49.820;8.648;2022-12-07T08:38:50;4.70;99.90
24250;DHT22;12379;49.820;8.648;2022-12-07T08:41:16;4.70;99.90
24250;DHT22;12379;49.820;8.648;2022-12-07T08:43:42;4.70;99.90
24250;DHT22;12379;49.820;8.648;2022-12-07T08:46:18;4.70;99.90
24250;DHT22;12379;49.820;8.648;2022-12-07T08:49:06;4.80;99.90
24250;DHT22;12379;49.820;8.648;2022-12-07T08:51:32;4.70;99.90
24250;DHT22;12379;49.820;8.648;2022-12-07T08:54:01;4.80;99.90
24250;DHT22;12379;49.820;8.648;2022-12-07T08:56:28;4.80;99.90
24250;DHT22;12379;49.820;8.648;2022-12-07T08:58:53;4.80;99.90
24250;DHT22;12379;49.820;8.648;2022-12-07T09:01:20;4.90;99.90
24250;DHT22;12379;49.820;8.648;2022-12-07T09:03:45;5.00;99.90
24250;DHT22;12379;49.820;8.648;2022-12-07T09:06:11;4.90;99.90
24250;DHT22;12379;49.820;8.648;2022-12-07T09:08:40;5.00;99.90
24250;DHT22;12379;49.820;8.648;2022-12-07T09:11:07;4.90;99.90
24250;DHT22;12379;49.820;8.648;2022-12-07T09:13:32;5.00;99.90
24250;DHT22;12379;49.820;8.648;2022-12-07T09:15:58;5.00;99.90
24250;DHT22;12379;49.820;8.648;2022-12-07T09:18:23;5.10;99.90
24250;DHT22;12379;49.820;8.648;2022-12-07T09:20:50;5.30;99.90
24250;DHT22;12379;49.820;8.648;2022-12-07T09:23:15;5.40;99.90
24250;DHT22;12379;49.820;8.648;2022-12-07T09:25:41;5.60;99.90
24250;DHT22;12379;49.820;8.648;2022-12-07T09:28:06;5.70;99.90
24250;DHT22;12379;49.820;8.648;2022-12-07T09:30:32;5.60;99.90
24250;DHT22;12379;49.820;8.648;2022-12-07T09:32:58;5.50;99.90
24250;DHT22;12379;49.820;8.648;2022-12-07T09:35:24;5.70;99.90
24250;DHT22;12379;49.820;8.648;2022-12-07T09:37:49;5.70;99.90
24250;DHT22;12379;49.820;8.648;2022-12-07T09:40:16;5.90;99.90
24250;DHT22;12379;49.820;8.648;2022-12-07T09:42:47;5.90;99.90
24250;DHT22;12379;49.820;8.648;2022-12-07T09:45:23;6.20;99.90
24250;DHT22;12379;49.820;8.648;2022-12-07T09:47:50;6.80;99.90
24250;DHT22;12379;49.820;8.648;2022-12-07T09:50:20;7.20;99.90
24250;DHT22;12379;49.820;8.648;2022-12-07T09:52:47;7.20;99.90
24250;DHT22;12379;49.820;8.648;2022-12-07T09:55:16;7.50;99.90
24250;DHT22;12379;49.820;8.648;2022-12-07T09:57:45;7.70;99.90
24250;DHT22;12379;49.820;8.648;2022-12-07T10:00:14;7.70;99.90
24250;DHT22;12379;49.820;8.648;2022-12-07T10:02:43;7.50;99.90
24250;DHT22;12379;49.820;8.648;2022-12-07T10:05:14;7.20;99.90
24250;DHT22;12379;49.820;8.648;2022-12-07T10:07:40;7.00;99.90
24250;DHT22;12379;49.820;8.648;2022-12-07T10:10:14;6.90;99.90
24250;DHT22;12379;49.820;8.648;2022-12-07T10:12:55;6.70;99.90
24250;DHT22;12379;49.820;8.648;2022-12-07T10:15:21;6.50;99.90
24250;DHT22;12379;49.820;8.648;2022-12-07T10:17:52;6.20;99.90
24250;DHT22;12379;49.820;8.648;2022-12-07T10:20:24;6.10;99.90
24250;DHT22;12379;49.820;8.648;2022-12-07T10:23:05;6.10;99.90
24250;DHT22;12379;49.820;8.648;2022-12-07T10:25:38;5.90;99.90
24250;DHT22;12379;49.820;8.648;2022-12-07T10:30:59;6.10;99.90
24250;DHT22;12379;49.820;8.648;2022-12-07T10:35:56;5.90;99.90
24250;DHT22;12379;49.820;8.648;2022-12-07T10:38:22;5.90;99.90
24250;DHT22;12379;49.820;8.648;2022-12-07T10:41:05;5.80;99.90
24250;DHT22;12379;49.820;8.648;2022-12-07T10:43:31;5.60;99.90
24250;DHT22;12379;49.820;8.648;2022-12-07T11:00:17;6.00;99.90
24250;DHT22;12379;49.820;8.648;2022-12-07T11:03:06;6.00;99.90
24250;DHT22;12379;49.820;8.648;2022-12-07T11:05:52;6.10;99.90
24250;DHT22;12379;49.820;8.648;2022-12-07T11:08:36;6.10;99.90
24250;DHT22;12379;49.820;8.648;2022-12-07T11:21:57;6.60;99.90
24250;DHT22;12379;49.820;8.648;2022-12-07T11:24:32;7.00;99.90
24250;DHT22;12379;49.820;8.648;2022-12-07T11:30:20;7.40;99.90
24250;DHT22;12379;49.820;8.648;2022-12-07T11:38:27;7.10;99.90
24250;DHT22;12379;49.820;8.648;2022-12-07T11:41:00;7.30;99.90
24250;DHT22;12379;49.820;8.648;2022-12-07T11:43:42;7.50;99.90
24250;DHT22;12379;49.820;8.648;2022-12-07T11:46:15;7.40;99.90
24250;DHT22;12379;49.820;8.648;2022-12-07T11:48:55;7.20;99.90
24250;DHT22;12379;49.820;8.648;2022-12-07T11:51:24;6.90;99.90
24250;DHT22;12379;49.820;8.648;2022-12-07T11:53:59;6.80;99.90
24250;DHT22;12379;49.820;8.648;2022-12-07T11:56:27;6.70;99.90
24250;DHT22;12379;49.820;8.648;2022-12-07T11:59:12;6.70;99.90
24250;DHT22;12379;49.820;8.648;2022-12-07T12:02:02;6.70;99.90
24250;DHT22;12379;49.820;8.648;2022-12-07T12:07:19;6.60;99.90
24250;DHT22;12379;49.820;8.648;2022-12-07T12:10:02;6.70;99.90
24250;DHT22;12379;49.820;8.648;2022-12-07T12:18:32;6.50;99.90
24250;DHT22;12379;49.820;8.648;2022-12-07T12:21:12;6.50;99.90
24250;DHT22;12379;49.820;8.648;2022-12-07T12:23:44;6.50;99.90
24250;DHT22;12379;49.820;8.648;2022-12-07T12:26:20;6.50;99.90
24250;DHT22;12379;49.820;8.648;2022-12-07T12:31:30;6.20;99.90
24250;DHT22;12379;49.820;8.648;2022-12-07T12:33:58;6.30;99.90
24250;DHT22;12379;49.820;8.648;2022-12-07T12:36:44;6.40;99.90
24250;DHT22;12379;49.820;8.648;2022-12-07T12:39:18;6.60;99.90
24250;DHT22;12379;49.820;8.648;2022-12-07T12:47:02;6.40;99.90
24250;DHT22;12379;49.820;8.648;2022-12-07T12:52:00;6.50;99.90
24250;DHT22;12379;49.820;8.648;2022-12-07T12:54:30;6.40;99.90
24250;DHT22;12379;49.820;8.648;2022-12-07T12:57:09;6.50;99.90
24250;DHT22;12379;49.820;8.648;2022-12-07T12:59:42;6.40;99.90
24250;DHT22;12379;49.820;8.648;2022-12-07T13:02:31;6.50;99.90
24250;DHT22;12379;49.820;8.648;2022-12-07T13:07:56;6.40;99.90
24250;DHT22;12379;49.820;8.648;2022-12-07T13:13:28;6.20;99.90
24250;DHT22;12379;49.820;8.648;2022-12-07T13:23:29;5.90;99.90
24250;DHT22;12379;49.820;8.648;2022-12-07T13:33:47;5.50;99.90
24250;DHT22;12379;49.820;8.648;2022-12-07T13:36:24;5.50;99.90
24250;DHT22;12379;49.820;8.648;2022-12-07T13:41:20;5.60;99.90
24250;DHT22;12379;49.820;8.648;2022-12-07T13:44:13;5.60;99.90
24250;DHT22;12379;49.820;8.648;2022-12-07T13:47:04;5.60;99.90
24250;DHT22;12379;49.820;8.648;2022-12-07T13:49:36;5.60;99.90
24250;DHT22;12379;49.820;8.648;2022-12-07T13:52:23;5.70;99.90
24250;DHT22;12379;49.820;8.648;2022-12-07T13:54:59;5.80;99.90
24250;DHT22;12379;49.820;8.648;2022-12-07T13:57:26;5.90;99.90
24250;DHT22;12379;49.820;8.648;2022-12-07T13:59:53;6.00;99.90
24250;DHT22;12379;49.820;8.648;2022-12-07T14:02:28;6.10;99.90
24250;DHT22;12379;49.820;8.648;2022-12-07T14:05:13;6.20;99.90
24250;DHT22;12379;49.820;8.648;2022-12-07T14:07:56;6.30;99.90
24250;DHT22;12379;49.820;8.648;2022-12-07T14:10:30;6.20;99.90
24250;DHT22;12379;49.820;8.648;2022-12-07T14:12:57;6.10;99.90
24250;DHT22;12379;49.820;8.648;2022-12-07T14:15:29;6.10;99.90
24250;DHT22;12379;49.820;8.648;2022-12-07T14:17:57;6.00;99.90
24250;DHT22;12379;49.820;8.648;2022-12-07T14:22:58;6.10;99.90
24250;DHT22;12379;49.820;8.648;2022-12-07T14:25:25;6.00;99.90
24250;DHT22;12379;49.820;8.648;2022-12-07T14:30:21;6.10;99.90
24250;DHT22;12379;49.820;8.648;2022-12-07T14:32:50;6.20;99.90
24250;DHT22;12379;49.820;8.648;2022-12-07T14:35:18;6.10;99.90
24250;DHT22;12379;49.820;8.648;2022-12-07T14:37:46;6.10;99.90
24250;DHT22;12379;49.820;8.648;2022-12-07T14:40:20;6.10;99.90
24250;DHT22;12379;49.820;8.648;2022-12-07T14:42:47;6.10;99.90
24250;DHT22;12379;49.820;8.648;2022-12-07T14:45:16;6.10;99.90
24250;DHT22;12379;49.820;8.648;2022-12-07T14:47:43;6.00;99.90
24250;DHT22;12379;49.820;8.648;2022-12-07T14:50:12;6.00;99.90
24250;DHT22;12379;49.820;8.648;2022-12-07T14:52:38;6.00;99.90
24250;DHT22;12379;49.820;8.648;2022-12-07T14:55:05;6.00;99.90
24250;DHT22;12379;49.820;8.648;2022-12-07T14:57:30;6.00;99.90
24250;DHT22;12379;49.820;8.648;2022-12-07T14:59:56;6.00;99.90
24250;DHT22;12379;49.820;8.648;2022-12-07T15:02:21;6.10;99.90
24250;DHT22;12379;49.820;8.648;2022-12-07T15:04:47;6.00;99.90
24250;DHT22;12379;49.820;8.648;2022-12-07T15:07:19;6.00;99.90
24250;DHT22;12379;49.820;8.648;2022-12-07T15:09:45;5.90;99.90
24250;DHT22;12379;49.820;8.648;2022-12-07T15:12:11;5.90;99.90
24250;DHT22;12379;49.820;8.648;2022-12-07T15:14:36;5.80;99.90
24250;DHT22;12379;49.820;8.648;2022-12-07T15:17:02;5.80;99.90
24250;DHT22;12379;49.820;8.648;2022-12-07T15:19:28;5.80;99.90
24250;DHT22;12379;49.820;8.648;2022-12-07T15:21:54;5.80;99.90
24250;DHT22;12379;49.820;8.648;2022-12-07T15:24:20;5.80;99.90
24250;DHT22;12379;49.820;8.648;2022-12-07T15:26:46;5.80;99.90
24250;DHT22;12379;49.820;8.648;2022-12-07T15:29:12;5.80;99.90
24250;DHT22;12379;49.820;8.648;2022-12-07T15:31:40;5.80;99.90
24250;DHT22;12379;49.820;8.648;2022-12-07T15:34:05;5.70;99.90
24250;DHT22;12379;49.820;8.648;2022-12-07T15:36:33;5.70;99.90
24250;DHT22;12379;49.820;8.648;2022-12-07T15:38:59;5.70;99.90
24250;DHT22;12379;49.820;8.648;2022-12-07T15:41:25;5.70;99.90
24250;DHT22;12379;49.820;8.648;2022-12-07T15:43:50;5.70;99.90
24250;DHT22;12379;49.820;8.648;2022-12-07T15:46:38;5.70;99.90
24250;DHT22;12379;49.820;8.648;2022-12-07T15:49:22;5.70;99.90
24250;DHT22;12379;49.820;8.648;2022-12-07T15:51:48;5.60;99.90
24250;DHT22;12379;49.820;8.648;2022-12-07T15:54:19;5.60;99.90
24250;DHT22;12379;49.820;8.648;2022-12-07T15:56:44;5.60;99.90
24250;DHT22;12379;49.820;8.648;2022-12-07T15:59:10;5.60;99.90
24250;DHT22;12379;49.820;8.648;2022-12-07T16:01:36;5.60;99.90
24250;DHT22;12379;49.820;8.648;2022-12-07T16:04:01;5.60;99.90
24250;DHT22;12379;49.820;8.648;2022-12-07T16:06:27;5.60;99.90
24250;DHT22;12379;49.820;8.648;2022-12-07T16:08:52;5.50;99.90
24250;DHT22;12379;49.820;8.648;2022-12-07T16:11:18;5.50;99.90
24250;DHT22;12379;49.820;8.648;2022-12-07T16:13:44;5.50;99.90
24250;DHT22;12379;49.820;8.648;2022-12-07T16:16:15;5.50;99.90
24250;DHT22;12379;49.820;8.648;2022-12-07T16:18:42;5.50;99.90
24250;DHT22;12379;49.820;8.648;2022-12-07T16:21:08;5.50;99.90
24250;DHT22;12379;49.820;8.648;2022-12-07T16:23:34;5.50;99.90
24250;DHT22;12379;49.820;8.648;2022-12-07T16:26:10;5.50;99.90
24250;DHT22;12379;49.820;8.648;2022-12-07T16:28:36;5.50;99.90
24250;DHT22;12379;49.820;8.648;2022-12-07T16:31:14;5.40;99.90
24250;DHT22;12379;49.820;8.648;2022-12-07T16:33:41;5.40;99.90
24250;DHT22;12379;49.820;8.648;2022-12-07T16:36:12;5.40;99.90
24250;DHT22;12379;49.820;8.648;2022-12-07T16:38:38;5.30;99.90
24250;DHT22;12379;49.820;8.648;2022-12-07T16:41:07;5.30;99.90
24250;DHT22;12379;49.820;8.648;2022-12-07T16:43:33;5.30;99.90
24250;DHT22;12379;49.820;8.648;2022-12-07T16:45:59;5.40;99.90
24250;DHT22;12379;49.820;8.648;2022-12-07T16:48:25;5.40;99.90
24250;DHT22;12379;49.820;8.648;2022-12-07T16:50:51;5.30;99.90
24250;DHT22;12379;49.820;8.648;2022-12-07T16:53:20;5.30;99.90
24250;DHT22;12379;49.820;8.648;2022-12-07T16:55:46;5.40;99.90
24250;DHT22;12379;49.820;8.648;2022-12-07T16:58:13;5.40;99.90
24250;DHT22;12379;49.820;8.648;2022-12-07T17:00:40;5.30;99.90
24250;DHT22;12379;49.820;8.648;2022-12-07T17:03:06;5.20;99.90
24250;DHT22;12379;49.820;8.648;2022-12-07T17:05:32;5.20;99.90
24250;DHT22;12379;49.820;8.648;2022-12-07T17:07:57;5.20;99.90
24250;DHT22;12379;49.820;8.648;2022-12-07T17:10:24;5.30;99.90
24250;DHT22;12379;49.820;8.648;2022-12-07T17:12:50;5.30;99.90
24250;DHT22;12379;49.820;8.648;2022-12-07T17:15:16;5.30;99.90
24250;DHT22;12379;49.820;8.648;2022-12-07T17:17:57;5.30;99.90
24250;DHT22;12379;49.820;8.648;2022-12-07T17:20:25;5.30;99.90
24250;DHT22;12379;49.820;8.648;2022-12-07T17:22:51;5.30;99.90
24250;DHT22;12379;49.820;8.648;2022-12-07T17:25:17;5.30;99.90
24250;DHT22;12379;49.820;8.648;2022-12-07T17:27:44;5.30;99.90
24250;DHT22;12379;49.820;8.648;2022-12-07T17:30:10;5.20;99.90
24250;DHT22;12379;49.820;8.648;2022-12-07T17:32:36;5.20;99.90
24250;DHT22;12379;49.820;8.648;2022-12-07T17:35:02;5.20;99.90
24250;DHT22;12379;49.820;8.648;2022-12-07T17:37:28;5.20;99.90
24250;DHT22;12379;49.820;8.648;2022-12-07T17:39:55;5.10;99.90
24250;DHT22;12379;49.820;8.648;2022-12-07T17:42:25;5.10;99.90
24250;DHT22;12379;49.820;8.648;2022-12-07T17:45:06;5.10;99.90
24250;DHT22;12379;49.820;8.648;2022-12-07T17:47:32;5.10;99.90
24250;DHT22;12379;49.820;8.648;2022-12-07T17:49:58;5.10;99.90
24250;DHT22;12379;49.820;8.648;2022-12-07T17:52:23;5.20;99.90
24250;DHT22;12379;49.820;8.648;2022-12-07T17:55:08;5.20;99.90
24250;DHT22;12379;49.820;8.648;2022-12-07T17:57:39;5.10;99.90